createdAt,value
2023-03-06T00:00:21.784Z,1.51
2023-03-06T00:02:48.582Z,1.54
2023-03-06T00:05:16.120Z,1.52
2023-03-06T00:07:43.882Z,1.52
2023-03-06T00:10:16.279Z,1.53
2023-03-06T00:12:42.898Z,1.55
2023-03-06T00:15:10.744Z,1.53
2023-03-06T00:17:37.873Z,1.55
2023-03-06T00:20:05.892Z,1.52
2023-03-06T00:22:32.982Z,1.49
2023-03-06T00:24:59.785Z,1.43
2023-03-06T00:27:26.441Z,1.40
2023-03-06T00:29:57.656Z,1.41
2023-03-06T00:32:25.368Z,1.42
2023-03-06T00:34:53.620Z,1.42
2023-03-06T00:37:21.858Z,1.40
2023-03-06T00:39:49.618Z,1.35
2023-03-06T00:42:18.015Z,1.35
2023-03-06T00:44:45.249Z,1.35
2023-03-06T00:47:13.087Z,1.33
2023-03-06T00:49:39.652Z,1.30
2023-03-06T00:52:06.251Z,1.33
2023-03-06T00:54:32.845Z,1.21
2023-03-06T00:56:59.422Z,1.28
2023-03-06T00:59:27.605Z,1.30
2023-03-06T01:01:54.818Z,1.29
2023-03-06T01:04:21.632Z,1.30
2023-03-06T01:06:48.901Z,1.31
2023-03-06T01:09:15.554Z,1.32
2023-03-06T01:11:42.121Z,1.32
2023-03-06T01:14:08.760Z,1.26
2023-03-06T01:16:35.387Z,1.26
2023-03-06T01:19:02.146Z,1.26
2023-03-06T01:21:28.878Z,1.24
2023-03-06T01:23:55.494Z,1.23
2023-03-06T01:26:22.115Z,1.19
2023-03-06T01:28:48.771Z,1.20
2023-03-06T01:31:15.413Z,1.19
2023-03-06T01:33:42.026Z,1.16
2023-03-06T01:36:12.224Z,1.17
2023-03-06T01:38:39.173Z,1.08
2023-03-06T01:41:06.693Z,1.03
2023-03-06T01:43:36.700Z,1.00
2023-03-06T01:46:22.769Z,0.96
2023-03-06T01:48:53.670Z,0.97
2023-03-06T01:51:20.824Z,0.99
2023-03-06T01:53:50.496Z,0.94
2023-03-06T01:56:17.213Z,1.03
2023-03-06T01:58:44.780Z,0.95
2023-03-06T02:01:13.464Z,0.98
2023-03-06T02:03:42.284Z,0.97
2023-03-06T02:06:09.003Z,0.93
2023-03-06T02:08:35.788Z,0.90
2023-03-06T02:11:07.901Z,0.95
2023-03-06T02:13:36.396Z,1.01
2023-03-06T02:16:03.442Z,1.00
2023-03-06T02:18:31.758Z,1.00
2023-03-06T02:21:02.392Z,0.94
2023-03-06T02:23:34.028Z,0.92
2023-03-06T02:26:02.230Z,0.95
2023-03-06T02:28:29.003Z,0.97
2023-03-06T02:30:56.082Z,0.96
2023-03-06T02:33:27.132Z,0.97
2023-03-06T02:35:58.626Z,1.00
2023-03-06T02:38:29.250Z,0.99
2023-03-06T02:40:58.132Z,0.94
2023-03-06T02:43:29.522Z,0.93
2023-03-06T02:45:56.205Z,0.92
2023-03-06T02:48:22.861Z,0.88
2023-03-06T02:50:49.534Z,0.85
2023-03-06T02:53:18.122Z,0.82
2023-03-06T02:55:45.458Z,0.78
2023-03-06T02:58:12.650Z,0.72
2023-03-06T03:00:40.294Z,0.76
2023-03-06T03:03:07.557Z,0.74
2023-03-06T03:05:34.196Z,0.75
2023-03-06T03:08:01.064Z,0.75
2023-03-06T03:10:27.691Z,0.73
2023-03-06T03:12:54.300Z,0.70
2023-03-06T03:15:24.149Z,0.70
2023-03-06T03:17:50.974Z,0.68
2023-03-06T03:20:20.195Z,0.67
2023-03-06T03:22:52.316Z,0.64
2023-03-06T03:25:21.789Z,0.63
2023-03-06T03:27:48.717Z,0.59
2023-03-06T03:30:15.974Z,0.53
2023-03-06T03:32:42.578Z,0.51
2023-03-06T03:35:11.181Z,0.52
2023-03-06T03:37:38.135Z,0.54
2023-03-06T03:40:06.850Z,0.57
2023-03-06T03:42:34.552Z,0.54
2023-03-06T03:45:01.134Z,0.29
2023-03-06T03:47:27.809Z,0.22
2023-03-06T03:49:54.385Z,0.40
2023-03-06T03:52:21.076Z,0.41
2023-03-06T03:54:47.662Z,0.39
2023-03-06T03:57:14.257Z,0.39
2023-03-06T03:59:40.889Z,0.39
2023-03-06T04:02:07.528Z,0.35
2023-03-06T04:04:34.183Z,0.35
2023-03-06T04:07:00.842Z,0.28
2023-03-06T04:09:27.625Z,0.32
2023-03-06T04:11:54.296Z,0.35
2023-03-06T04:14:20.914Z,0.36
2023-03-06T04:16:47.607Z,0.31
2023-03-06T04:19:14.225Z,0.28
2023-03-06T04:21:40.802Z,0.30
2023-03-06T04:24:07.966Z,0.36
2023-03-06T04:26:37.837Z,0.32
2023-03-06T04:29:04.458Z,0.26
2023-03-06T04:31:31.138Z,0.27
2023-03-06T04:33:57.756Z,0.32
2023-03-06T04:36:30.884Z,0.33
2023-03-06T04:38:58.067Z,0.35
2023-03-06T04:41:24.747Z,0.33
2023-03-06T04:43:51.843Z,0.34
2023-03-06T04:46:18.540Z,0.38
2023-03-06T04:48:45.184Z,0.40
2023-03-06T04:51:13.582Z,0.42
2023-03-06T04:53:40.307Z,0.43
2023-03-06T04:56:07.304Z,0.43
2023-03-06T04:58:33.929Z,0.45
2023-03-06T05:01:00.600Z,0.43
2023-03-06T05:03:27.358Z,0.44
2023-03-06T05:05:53.978Z,0.46
2023-03-06T05:08:21.190Z,0.48
2023-03-06T05:10:54.817Z,0.43
2023-03-06T05:13:21.562Z,0.44
2023-03-06T05:15:48.174Z,0.42
2023-03-06T05:18:14.805Z,0.45
2023-03-06T05:20:41.404Z,0.45
2023-03-06T05:23:08.081Z,0.43
2023-03-06T05:25:34.695Z,0.41
2023-03-06T05:28:01.314Z,0.37
2023-03-06T05:30:27.954Z,0.36
2023-03-06T05:32:54.640Z,0.36
2023-03-06T05:35:23.328Z,0.34
2023-03-06T05:37:50.294Z,0.33
2023-03-06T05:40:18.176Z,0.38
2023-03-06T05:42:45.268Z,0.37
2023-03-06T05:45:12.120Z,0.34
2023-03-06T05:47:38.693Z,0.29
2023-03-06T05:50:08.040Z,0.23
2023-03-06T05:52:34.657Z,0.22
2023-03-06T05:55:01.293Z,0.21
2023-03-06T05:57:27.914Z,0.21
2023-03-06T05:59:54.650Z,0.22
2023-03-06T06:02:21.455Z,0.18
2023-03-06T06:04:48.286Z,0.16
2023-03-06T06:07:17.032Z,0.15
2023-03-06T06:09:45.592Z,0.13
2023-03-06T06:12:13.291Z,0.16
2023-03-06T06:14:39.998Z,0.22
2023-03-06T06:17:07.105Z,0.23
2023-03-06T06:19:33.767Z,0.18
2023-03-06T06:22:02.649Z,0.23
2023-03-06T06:24:29.853Z,0.30
2023-03-06T06:26:58.129Z,0.27
2023-03-06T06:29:26.122Z,0.25
2023-03-06T06:31:53.134Z,0.26
2023-03-06T06:34:20.343Z,0.30
2023-03-06T06:36:47.447Z,0.36
2023-03-06T06:39:16.515Z,0.41
2023-03-06T06:41:57.575Z,0.39
2023-03-06T06:44:29.124Z,0.42
2023-03-06T06:49:42.319Z,0.48
2023-03-06T06:52:09.100Z,0.53
2023-03-06T06:54:35.725Z,0.56
2023-03-06T06:57:02.316Z,0.61
2023-03-06T06:59:28.905Z,0.64
2023-03-06T07:01:55.475Z,0.70
2023-03-06T07:04:22.244Z,0.74
2023-03-06T07:06:48.835Z,0.81
2023-03-06T07:09:15.401Z,0.81
2023-03-06T07:11:42.003Z,0.88
2023-03-06T07:14:09.024Z,0.92
2023-03-06T07:16:38.859Z,0.97
2023-03-06T07:19:06.304Z,1.01
2023-03-06T07:21:33.250Z,1.03
2023-03-06T07:24:00.816Z,1.09
2023-03-06T07:26:28.420Z,1.13
2023-03-06T07:28:55.438Z,1.19
2023-03-06T07:31:24.740Z,1.24
2023-03-06T07:33:52.689Z,1.26
2023-03-06T07:36:20.484Z,1.30
2023-03-06T07:38:47.245Z,1.36
2023-03-06T07:41:16.379Z,1.53
2023-03-06T07:43:44.992Z,1.52
2023-03-06T07:46:13.135Z,1.54
2023-03-06T07:48:40.525Z,1.60
2023-03-06T07:51:16.049Z,1.65
2023-03-06T07:53:42.668Z,1.70
2023-03-06T07:56:11.089Z,1.86
2023-03-06T07:58:39.468Z,1.91
2023-03-06T08:01:10.442Z,1.91
2023-03-06T08:03:37.615Z,1.91
2023-03-06T08:06:07.593Z,1.91
2023-03-06T08:08:35.535Z,1.96
2023-03-06T08:11:02.329Z,2.01
2023-03-06T08:13:28.982Z,2.12
2023-03-06T08:15:56.740Z,2.15
2023-03-06T08:18:23.431Z,2.16
2023-03-06T08:20:50.083Z,2.25
2023-03-06T08:23:16.692Z,2.33
2023-03-06T08:25:43.298Z,2.38
2023-03-06T08:28:13.098Z,2.46
2023-03-06T08:30:39.709Z,2.51
2023-03-06T08:33:06.298Z,2.53
2023-03-06T08:35:32.944Z,2.56
2023-03-06T08:37:59.585Z,2.59
2023-03-06T08:40:30.398Z,2.78
2023-03-06T08:42:56.990Z,2.71
2023-03-06T08:45:23.754Z,2.77
2023-03-06T08:47:50.369Z,2.78
2023-03-06T08:50:17.228Z,2.75
2023-03-06T08:52:43.835Z,2.80
2023-03-06T08:55:10.820Z,2.96
2023-03-06T08:57:37.411Z,2.92
2023-03-06T09:00:08.872Z,2.96
2023-03-06T09:02:35.665Z,3.17
2023-03-06T09:05:05.841Z,3.19
2023-03-06T09:07:32.453Z,3.26
2023-03-06T09:09:59.235Z,3.25
2023-03-06T09:12:27.241Z,3.47
2023-03-06T09:14:54.729Z,3.36
2023-03-06T09:17:21.361Z,3.53
2023-03-06T09:19:48.005Z,3.55
2023-03-06T09:22:14.582Z,3.57
2023-03-06T09:24:41.542Z,3.45
2023-03-06T09:27:08.144Z,3.47
2023-03-06T09:29:34.718Z,3.49
2023-03-06T09:32:01.324Z,3.70
2023-03-06T09:34:27.998Z,3.90
2023-03-06T09:36:57.200Z,3.86
2023-03-06T09:39:26.174Z,3.94
2023-03-06T09:41:53.906Z,3.88
2023-03-06T09:44:26.058Z,3.94
2023-03-06T09:47:19.655Z,3.94
2023-03-06T09:50:15.756Z,3.97
2023-03-06T09:53:15.396Z,3.90
2023-03-06T09:55:44.203Z,3.98
2023-03-06T09:58:21.131Z,4.10
2023-03-06T10:01:20.464Z,4.15
2023-03-06T10:03:52.939Z,4.21
2023-03-06T10:06:39.611Z,4.15
2023-03-06T10:09:13.548Z,4.28
2023-03-06T10:12:06.665Z,4.37
2023-03-06T10:14:48.462Z,4.46
2023-03-06T10:17:22.535Z,4.57
2023-03-06T10:19:49.840Z,4.68
2023-03-06T10:22:30.756Z,4.88
2023-03-06T10:25:28.104Z,4.88
2023-03-06T10:27:55.598Z,4.88
2023-03-06T10:30:23.185Z,4.87
2023-03-06T10:33:07.534Z,4.82
2023-03-06T10:35:51.721Z,5.00
2023-03-06T10:38:37.839Z,5.06
2023-03-06T10:41:16.942Z,5.12
2023-03-06T10:44:05.506Z,5.08
2023-03-06T10:46:36.414Z,5.00
2023-03-06T10:49:06.120Z,5.03
2023-03-06T10:51:34.272Z,5.10
2023-03-06T10:54:04.428Z,5.03
2023-03-06T10:56:35.099Z,4.92
2023-03-06T10:59:18.082Z,4.93
2023-03-06T11:01:47.616Z,5.06
2023-03-06T11:04:15.205Z,4.88
2023-03-06T11:06:42.076Z,4.91
2023-03-06T11:09:25.808Z,4.94
2023-03-06T11:12:08.894Z,5.03
2023-03-06T11:14:35.486Z,5.06
2023-03-06T11:17:05.359Z,5.01
2023-03-06T11:19:32.983Z,5.04
2023-03-06T11:22:02.801Z,4.81
2023-03-06T11:24:37.467Z,4.86
2023-03-06T11:27:22.254Z,4.70
2023-03-06T11:29:51.699Z,4.67
2023-03-06T11:32:22.544Z,4.74
2023-03-06T11:34:58.065Z,4.85
2023-03-06T11:37:33.735Z,4.91
2023-03-06T11:40:01.359Z,4.91
2023-03-06T11:42:38.245Z,5.01
2023-03-06T11:45:24.953Z,5.01
2023-03-06T11:48:20.105Z,5.12
2023-03-06T11:50:52.565Z,5.23
2023-03-06T11:53:23.118Z,5.37
2023-03-06T11:56:14.880Z,5.62
2023-03-06T11:58:58.147Z,5.69
2023-03-06T12:01:36.802Z,5.80
2023-03-06T12:04:23.357Z,5.72
2023-03-06T12:06:57.859Z,5.89
2023-03-06T12:09:36.090Z,5.80
2023-03-06T12:12:14.808Z,5.81
2023-03-06T12:14:56.787Z,5.78
2023-03-06T12:18:03.177Z,5.85
2023-03-06T12:20:31.798Z,6.07
2023-03-06T12:23:26.724Z,6.08
2023-03-06T12:26:21.184Z,6.09
2023-03-06T12:29:07.385Z,5.96
2023-03-06T12:32:09.344Z,5.91
2023-03-06T12:35:05.879Z,5.80
2023-03-06T12:38:02.339Z,5.80
2023-03-06T12:40:58.571Z,5.70
2023-03-06T12:43:40.351Z,5.79
2023-03-06T12:46:16.032Z,5.77
2023-03-06T12:48:48.793Z,5.79
2023-03-06T12:51:20.457Z,5.70
2023-03-06T12:53:49.910Z,5.67
2023-03-06T12:56:18.450Z,5.82
2023-03-06T12:58:51.010Z,5.83
2023-03-06T13:01:38.247Z,5.83
2023-03-06T13:04:35.522Z,5.70
2023-03-06T13:07:17.305Z,5.65
2023-03-06T13:09:59.149Z,5.56
2023-03-06T13:12:56.344Z,5.61
2023-03-06T13:15:41.286Z,5.50
2023-03-06T13:18:23.044Z,5.59
2023-03-06T13:20:51.679Z,5.63
2023-03-06T13:23:33.584Z,5.64
2023-03-06T13:26:08.609Z,5.71
2023-03-06T13:28:52.206Z,5.74
2023-03-06T13:31:34.156Z,5.83
2023-03-06T13:34:31.413Z,5.88
2023-03-06T13:37:33.368Z,5.73
2023-03-06T13:39:59.923Z,5.80
2023-03-06T13:42:28.978Z,5.73
2023-03-06T13:44:58.023Z,5.73
2023-03-06T13:47:26.622Z,5.72
2023-03-06T13:49:53.283Z,5.80
2023-03-06T13:52:38.221Z,5.71
2023-03-06T13:55:22.900Z,5.71
2023-03-06T13:57:59.992Z,5.65
2023-03-06T14:00:43.130Z,5.67
2023-03-06T14:03:10.781Z,5.68
2023-03-06T14:05:47.758Z,5.62
2023-03-06T14:08:19.368Z,5.63
2023-03-06T14:10:49.025Z,5.60
2023-03-06T14:13:23.656Z,5.59
2023-03-06T14:15:52.816Z,5.68
2023-03-06T14:18:23.781Z,5.70
2023-03-06T14:21:11.792Z,5.63
2023-03-06T14:23:44.918Z,5.71
2023-03-06T14:26:15.579Z,5.72
2023-03-06T14:28:45.258Z,5.74
2023-03-06T14:31:17.859Z,5.60
2023-03-06T14:33:54.706Z,5.64
2023-03-06T14:36:25.627Z,5.65
2023-03-06T14:38:59.285Z,5.54
2023-03-06T14:41:29.408Z,5.42
2023-03-06T14:44:20.534Z,5.54
2023-03-06T14:46:49.927Z,5.51
2023-03-06T14:49:19.047Z,5.46
2023-03-06T14:51:50.252Z,5.37
2023-03-06T14:54:26.441Z,5.33
2023-03-06T14:57:01.537Z,5.38
2023-03-06T14:59:31.166Z,5.46
2023-03-06T15:02:01.512Z,5.34
2023-03-06T15:04:36.604Z,5.35
2023-03-06T15:07:08.300Z,5.32
2023-03-06T15:09:37.219Z,5.28
2023-03-06T15:12:08.518Z,5.17
2023-03-06T15:14:38.774Z,5.17
2023-03-06T15:17:32.785Z,5.16
2023-03-06T15:20:00.674Z,5.16
2023-03-06T15:22:33.309Z,5.15
2023-03-06T15:25:16.199Z,5.14
2023-03-06T15:27:49.837Z,5.14
2023-03-06T15:30:26.689Z,5.09
2023-03-06T15:33:09.606Z,5.03
2023-03-06T15:35:38.236Z,4.91
2023-03-06T15:38:24.937Z,4.87
2023-03-06T15:40:57.204Z,4.84
2023-03-06T15:43:23.810Z,4.83
2023-03-06T15:45:53.339Z,4.74
2023-03-06T15:48:20.018Z,4.78
2023-03-06T15:50:46.735Z,4.82
2023-03-06T15:53:13.406Z,4.75
2023-03-06T15:55:40.187Z,4.74
2023-03-06T15:58:06.800Z,4.76
2023-03-06T16:00:36.840Z,4.73
2023-03-06T16:03:04.410Z,4.66
2023-03-06T16:05:31.520Z,4.65
2023-03-06T16:07:58.324Z,4.63
2023-03-06T16:10:29.001Z,4.60
2023-03-06T16:13:03.046Z,4.53
2023-03-06T16:15:33.158Z,4.66
2023-03-06T16:18:00.393Z,4.54
2023-03-06T16:20:28.530Z,4.50
2023-03-06T16:22:56.331Z,4.49
2023-03-06T16:25:25.468Z,4.44
2023-03-06T16:28:01.658Z,4.60
2023-03-06T16:30:34.328Z,4.53
2023-03-06T16:33:01.988Z,4.56
2023-03-06T16:35:28.861Z,4.47
2023-03-06T16:37:55.529Z,4.42
2023-03-06T16:40:25.517Z,4.44
2023-03-06T16:42:54.069Z,4.44
2023-03-06T16:45:23.037Z,4.38
2023-03-06T16:47:49.649Z,4.38
2023-03-06T16:50:33.226Z,4.32
2023-03-06T16:52:59.937Z,4.38
2023-03-06T16:55:27.907Z,4.30
2023-03-06T16:57:54.789Z,4.34
2023-03-06T17:00:24.600Z,4.28
2023-03-06T17:02:52.372Z,4.37
2023-03-06T17:05:19.947Z,4.34
2023-03-06T17:07:46.824Z,4.26
2023-03-06T17:10:16.091Z,4.34
2023-03-06T17:12:43.648Z,4.24
2023-03-06T17:15:11.439Z,4.22
2023-03-06T17:17:38.108Z,4.16
2023-03-06T17:20:08.097Z,4.18
2023-03-06T17:22:35.860Z,4.11
2023-03-06T17:25:03.577Z,4.08
2023-03-06T17:27:30.239Z,4.11
2023-03-06T17:29:57.982Z,4.03
2023-03-06T17:32:24.796Z,3.99
2023-03-06T17:34:51.449Z,3.98
2023-03-06T17:37:18.353Z,3.99
2023-03-06T17:39:45.045Z,3.94
2023-03-06T17:42:11.616Z,3.97
2023-03-06T17:44:38.892Z,3.94
2023-03-06T17:47:05.997Z,3.96
2023-03-06T17:49:32.600Z,3.97
2023-03-06T17:52:02.799Z,3.96
2023-03-06T17:54:30.179Z,3.94
2023-03-06T17:57:01.054Z,3.93
2023-03-06T17:59:28.301Z,3.90
2023-03-06T18:01:57.677Z,3.87
2023-03-06T18:04:24.767Z,3.83
2023-03-06T18:06:51.392Z,3.84
2023-03-06T18:09:18.240Z,3.85
2023-03-06T18:11:45.368Z,3.86
2023-03-06T18:14:12.025Z,3.85
2023-03-06T18:16:38.821Z,3.81
2023-03-06T18:19:05.477Z,3.77
2023-03-06T18:21:32.089Z,3.70
2023-03-06T18:23:58.769Z,3.65
2023-03-06T18:26:28.167Z,3.63
2023-03-06T18:28:58.553Z,3.62
2023-03-06T18:31:31.734Z,3.63
2023-03-06T18:34:02.034Z,3.67
2023-03-06T18:36:31.870Z,3.70
2023-03-06T18:38:59.564Z,3.72
2023-03-06T18:41:26.436Z,3.73
2023-03-06T18:43:55.413Z,3.73
2023-03-06T18:46:23.298Z,3.76
2023-03-06T18:48:50.398Z,3.77
2023-03-06T18:51:17.878Z,3.83
2023-03-06T18:53:44.720Z,3.78
2023-03-06T18:56:17.882Z,3.78
2023-03-06T18:58:45.056Z,3.76
2023-03-06T19:01:12.197Z,3.75
2023-03-06T19:03:38.864Z,3.76
2023-03-06T19:06:07.907Z,3.75
2023-03-06T19:08:35.944Z,3.74
2023-03-06T19:11:05.825Z,3.72
2023-03-06T19:13:32.466Z,3.70
2023-03-06T19:15:59.406Z,3.68
2023-03-06T19:18:30.737Z,3.68
2023-03-06T19:21:17.433Z,3.74
2023-03-06T19:23:44.203Z,3.76
2023-03-06T19:26:12.284Z,3.69
2023-03-06T19:28:41.158Z,3.66
2023-03-06T19:31:10.945Z,3.65
2023-03-06T19:33:40.239Z,3.64
2023-03-06T19:36:10.540Z,3.60
2023-03-06T19:38:38.535Z,3.61
2023-03-06T19:41:06.512Z,3.54
2023-03-06T19:43:33.650Z,3.44
2023-03-06T19:46:01.702Z,3.42
2023-03-06T19:48:32.851Z,3.37
2023-03-06T19:51:04.813Z,3.44
2023-03-06T19:53:33.357Z,3.39
2023-03-06T19:56:09.203Z,3.39
2023-03-06T19:58:37.076Z,3.40
2023-03-06T20:01:06.882Z,3.50
2023-03-06T20:03:34.536Z,3.49
2023-03-06T20:06:03.216Z,3.63
2023-03-06T20:08:30.376Z,3.55
2023-03-06T20:10:57.127Z,3.52
2023-03-06T20:13:24.481Z,3.45
2023-03-06T20:15:52.423Z,3.34
2023-03-06T20:18:19.631Z,3.36
2023-03-06T20:20:57.313Z,3.42
2023-03-06T20:23:24.499Z,3.32
2023-03-06T20:25:51.391Z,3.34
2023-03-06T20:28:18.932Z,3.31
2023-03-06T20:30:49.750Z,3.29
2023-03-06T20:33:17.109Z,3.33
2023-03-06T20:35:44.709Z,3.33
2023-03-06T20:38:12.344Z,3.31
2023-03-06T20:40:41.328Z,3.30
2023-03-06T20:43:09.113Z,3.28
2023-03-06T20:45:36.401Z,3.23
2023-03-06T20:48:03.764Z,3.22
2023-03-06T20:50:31.070Z,3.21
2023-03-06T20:52:59.145Z,3.17
2023-03-06T20:55:25.869Z,3.16
2023-03-06T20:57:53.859Z,3.13
2023-03-06T21:00:21.567Z,3.09
2023-03-06T21:02:48.423Z,3.08
2023-03-06T21:05:15.839Z,3.06
2023-03-06T21:07:42.781Z,3.05
2023-03-06T21:10:12.069Z,3.06
2023-03-06T21:12:38.892Z,3.01
2023-03-06T21:15:06.505Z,2.99
2023-03-06T21:17:34.162Z,2.97
2023-03-06T21:20:01.032Z,2.96
2023-03-06T21:22:30.260Z,2.95
2023-03-06T21:24:58.584Z,2.97
2023-03-06T21:27:26.385Z,2.93
2023-03-06T21:29:54.009Z,2.93
2023-03-06T21:32:22.085Z,2.88
2023-03-06T21:34:49.199Z,2.89
2023-03-06T21:37:17.069Z,2.88
2023-03-06T21:39:44.585Z,2.87
2023-03-06T21:42:12.043Z,2.92
2023-03-06T21:44:39.732Z,2.90
2023-03-06T21:47:06.671Z,2.89
2023-03-06T21:49:33.285Z,2.78
2023-03-06T21:51:59.926Z,2.74
2023-03-06T21:54:27.117Z,2.74
2023-03-06T21:56:53.773Z,2.64
2023-03-06T21:59:20.374Z,2.66
2023-03-06T22:01:47.639Z,2.74
2023-03-06T22:04:14.506Z,2.74
2023-03-06T22:06:41.235Z,2.75
2023-03-06T22:09:08.562Z,2.77
2023-03-06T22:11:37.281Z,2.70
2023-03-06T22:14:05.680Z,2.68
2023-03-06T22:16:32.794Z,2.68
2023-03-06T22:19:00.596Z,2.69
2023-03-06T22:21:27.292Z,2.66
2023-03-06T22:23:57.779Z,2.65
2023-03-06T22:26:26.076Z,2.67
2023-03-06T22:28:53.324Z,2.69
2023-03-06T22:31:25.736Z,2.72
2023-03-06T22:33:53.722Z,2.73
2023-03-06T22:36:21.094Z,2.73
2023-03-06T22:38:48.706Z,2.66
2023-03-06T22:41:17.294Z,2.68
2023-03-06T22:43:44.005Z,2.70
2023-03-06T22:46:13.587Z,2.65
2023-03-06T22:48:40.879Z,2.63
2023-03-06T22:51:09.388Z,2.66
2023-03-06T22:53:36.779Z,2.66
2023-03-06T22:56:05.333Z,2.65
2023-03-06T22:58:36.932Z,2.65
2023-03-06T23:01:04.912Z,2.63
2023-03-06T23:03:31.626Z,2.62
2023-03-06T23:05:58.323Z,2.58
2023-03-06T23:08:24.968Z,2.61
2023-03-06T23:10:51.569Z,2.59
2023-03-06T23:13:18.160Z,2.58
2023-03-06T23:15:44.750Z,2.53
2023-03-06T23:18:11.351Z,2.57
2023-03-06T23:20:42.577Z,2.53
2023-03-06T23:23:09.822Z,2.49
2023-03-06T23:25:36.861Z,2.49
2023-03-06T23:28:03.696Z,2.49
2023-03-06T23:30:30.314Z,2.52
2023-03-06T23:32:57.051Z,2.57
2023-03-06T23:35:23.631Z,2.63
2023-03-06T23:37:50.323Z,2.64
2023-03-06T23:40:17.149Z,2.57
2023-03-06T23:42:43.745Z,2.53
2023-03-06T23:45:10.908Z,2.54
2023-03-06T23:47:37.522Z,2.54
2023-03-06T23:50:04.457Z,2.48
2023-03-06T23:52:31.118Z,2.45
2023-03-06T23:54:57.710Z,2.43
2023-03-06T23:57:24.314Z,2.45
2023-03-06T23:59:50.938Z,2.46
